Time;durP1;ratioP1;P1;durP2;ratioP2;P2;SDS_P1;SDS_P2;PMS_P1;PMS_P2;Temp;Humidity;BMP_temperature;BMP_pressure;BME280_temperature;BME280_humidity;BME280_pressure;Samples;Min_cycle;Max_cycle;Signal;HPM_P1;HPM_P2
2023/06/18 00:00:11;;;;;;;26.48;22.92;;;15.30;99.90;;;;;;4980369;28;89584;-34
2023/06/18 00:02:36;;;;;;;29.05;22.83;;;15.30;99.90;;;;;;4979419;28;89289;-33
2023/06/18 00:05:02;;;;;;;28.42;20.95;;;15.30;99.90;;;;;;4979845;28;90298;-36
2023/06/18 00:07:28;;;;;;;27.55;21.90;;;15.30;99.90;;;;;;4979566;28;90034;-33
2023/06/18 00:09:53;;;;;;;29.25;21.85;;;15.30;99.90;;;;;;4980344;28;88169;-33
2023/06/18 00:12:19;;;;;;;27.70;23.35;;;15.20;99.90;;;;;;4980607;28;89286;-33
2023/06/18 00:14:45;;;;;;;30.98;23.73;;;15.20;99.90;;;;;;4980325;28;88377;-34
2023/06/18 00:17:11;;;;;;;29.83;23.75;;;15.20;99.90;;;;;;4979794;28;90743;-36
2023/06/18 00:19:36;;;;;;;28.35;22.95;;;15.10;99.90;;;;;;4980580;28;90740;-34
2023/06/18 00:22:02;;;;;;;30.92;25.98;;;15.10;99.90;;;;;;4981126;28;89311;-32
2023/06/18 00:24:28;;;;;;;27.48;22.98;;;15.10;99.90;;;;;;4979702;28;90070;-32
2023/06/18 00:26:53;;;;;;;28.65;24.25;;;15.10;99.90;;;;;;4979834;28;89991;-35
2023/06/18 00:29:20;;;;;;;29.63;25.83;;;15.00;99.90;;;;;;4979925;28;89701;-32
2023/06/18 00:31:45;;;;;;;35.90;26.13;;;15.00;99.90;;;;;;4974123;28;87660;-34
2023/06/18 00:34:14;;;;;;;34.28;25.55;;;14.90;99.90;;;;;;5000253;28;90283;-33
2023/06/18 00:36:43;;;;;;;31.23;24.92;;;14.90;99.90;;;;;;5000015;28;89493;-36
2023/06/18 00:39:09;;;;;;;32.33;25.17;;;14.90;99.90;;;;;;5000150;28;89691;-36
2023/06/18 00:41:35;;;;;;;30.42;23.92;;;14.80;99.90;;;;;;4999155;28;89999;-32
2023/06/18 00:44:01;;;;;;;30.50;23.80;;;14.80;99.90;;;;;;4989615;28;90992;-35
2023/06/18 00:46:30;;;;;;;37.47;27.20;;;14.80;99.90;;;;;;4986261;28;90746;-35
2023/06/18 00:48:57;;;;;;;31.75;26.98;;;14.70;99.90;;;;;;4998627;28;90070;-33
2023/06/18 00:51:26;;;;;;;35.15;25.63;;;14.70;99.90;;;;;;5011675;28;89800;-33
2023/06/18 00:53:53;;;;;;;35.22;27.38;;;14.70;99.90;;;;;;5018799;28;89964;-35
2023/06/18 00:56:18;;;;;;;31.58;25.50;;;14.70;99.90;;;;;;5003254;28;89969;-37
2023/06/18 00:58:47;;;;;;;37.30;30.08;;;14.70;99.90;;;;;;5000032;28;89638;-34
2023/06/18 01:01:16;;;;;;;35.92;28.42;;;14.60;99.90;;;;;;4998885;28;89460;-34
2023/06/18 01:03:42;;;;;;;33.28;27.38;;;14.60;99.90;;;;;;5008314;28;89631;-32
2023/06/18 01:06:12;;;;;;;36.83;29.08;;;14.50;99.90;;;;;;5015373;28;90505;-36
2023/06/18 01:08:40;;;;;;;31.67;25.30;;;14.50;99.90;;;;;;4999888;28;89365;-36
2023/06/18 01:11:08;;;;;;;36.05;27.65;;;14.50;99.90;;;;;;4998896;28;87783;-34
2023/06/18 01:13:39;;;;;;;;;;;14.40;99.90;;;;;;5000499;28;90205;-36
2023/06/18 01:16:08;;;;;;;36.13;28.25;;;14.40;99.90;;;;;;5002000;28;89986;-33
2023/06/18 01:18:45;;;;;;;37.50;29.17;;;14.40;99.90;;;;;;4981019;28;90446;-35
2023/06/18 01:21:18;;;;;;;39.72;30.52;;;14.40;99.90;;;;;;4987137;28;89610;-35
2023/06/18 01:23:49;;;;;;;42.67;31.48;;;14.40;99.90;;;;;;4999624;28;89865;-35
2023/06/18 01:26:20;;;;;;;39.72;31.58;;;14.40;99.90;;;;;;4999133;28;89567;-34
2023/06/18 01:28:51;;;;;;;41.75;31.17;;;14.40;99.90;;;;;;4999807;28;89573;-33
2023/06/18 01:31:22;;;;;;;37.75;29.20;;;14.40;99.90;;;;;;4989464;28;90407;-33
2023/06/18 01:33:51;;;;;;;33.30;25.05;;;14.30;99.90;;;;;;4961979;28;90666;-34
2023/06/18 01:36:34;;;;;;;33.40;25.52;;;14.20;99.90;;;;;;4979327;28;91105;-34
2023/06/18 01:39:14;;;;;;;31.60;26.17;;;14.20;99.90;;;;;;4979715;28;89988;-33
2023/06/18 01:41:43;;;;;;;39.97;27.48;;;14.20;99.90;;;;;;4980950;28;88764;-34
2023/06/18 01:44:13;;;;;;;37.15;28.92;;;14.20;99.90;;;;;;4961839;28;90347;-36
2023/06/18 01:46:41;;;;;;;39.58;28.83;;;14.20;99.90;;;;;;4980479;28;90955;-34
2023/06/18 01:49:08;;;;;;;38.23;29.70;;;14.10;99.90;;;;;;4979499;28;90248;-33
2023/06/18 01:51:36;;;;;;;31.90;25.60;;;14.20;99.90;;;;;;4981626;28;89217;-35
2023/06/18 01:54:05;;;;;;;38.40;27.33;;;14.10;99.90;;;;;;4980690;28;90500;-36
2023/06/18 01:56:31;;;;;;;;;;;13.90;99.90;;;;;;4980426;28;89442;-33
2023/06/18 01:58:57;;;;;;;33.88;24.05;;;13.80;99.90;;;;;;4992032;28;90198;-32
2023/06/18 02:01:23;;;;;;;30.83;23.63;;;13.70;99.90;;;;;;4980190;28;89745;-35
2023/06/18 02:03:48;;;;;;;27.58;21.90;;;13.80;99.90;;;;;;4988988;28;90571;-36
2023/06/18 02:06:14;;;;;;;36.83;27.05;;;13.80;99.90;;;;;;4998010;28;90119;-35
2023/06/18 02:08:41;;;;;;;36.65;27.40;;;13.80;99.90;;;;;;4998061;28;89794;-31
2023/06/18 02:11:07;;;;;;;36.65;28.27;;;13.80;99.90;;;;;;4980601;28;88132;-35
2023/06/18 02:13:33;;;;;;;39.10;30.33;;;13.80;99.90;;;;;;4979200;28;90267;-33
2023/06/18 02:15:58;;;;;;;39.55;29.58;;;13.80;99.90;;;;;;4977863;28;88715;-33
2023/06/18 02:18:24;;;;;;;42.35;31.92;;;13.80;99.90;;;;;;4978585;28;89488;-33
2023/06/18 02:20:50;;;;;;;39.75;31.25;;;13.80;99.90;;;;;;4979024;28;90708;-32
2023/06/18 02:23:16;;;;;;;42.40;30.88;;;13.80;99.90;;;;;;4978830;28;90298;-37
2023/06/18 02:25:44;;;;;;;38.50;29.52;;;13.80;99.90;;;;;;4979774;28;89012;-33
2023/06/18 02:28:10;;;;;;;39.00;30.52;;;13.80;99.90;;;;;;4978482;28;89976;-33
2023/06/18 02:30:36;;;;;;;43.22;32.85;;;13.80;99.90;;;;;;4981122;28;88503;-35
2023/06/18 02:33:02;;;;;;;40.67;31.80;;;13.90;99.90;;;;;;4999309;28;91511;-32
2023/06/18 02:35:29;;;;;;;33.05;25.38;;;13.90;99.90;;;;;;4999978;28;89753;-32
2023/06/18 02:37:55;;;;;;;30.25;24.95;;;13.80;99.90;;;;;;4999773;28;90133;-36
2023/06/18 02:40:21;;;;;;;24.85;20.55;;;13.60;99.90;;;;;;5000694;28;88937;-34
2023/06/18 02:42:48;;;;;;;31.20;20.77;;;13.50;99.90;;;;;;4998771;28;90352;-33
2023/06/18 02:45:16;;;;;;;16.75;14.93;;;13.50;99.90;;;;;;4999897;28;90211;-34
2023/06/18 02:47:42;;;;;;;16.40;14.02;;;13.40;99.90;;;;;;4999997;28;90271;-35
2023/06/18 02:50:08;;;;;;;15.88;14.05;;;13.30;99.90;;;;;;4999849;28;89685;-35
2023/06/18 02:52:34;;;;;;;18.45;16.48;;;13.30;99.90;;;;;;4998442;28;88900;-35
2023/06/18 02:54:59;;;;;;;20.05;17.88;;;13.20;99.90;;;;;;5012012;28;89268;-35
2023/06/18 02:57:25;;;;;;;21.92;17.58;;;13.20;99.90;;;;;;4997999;28;89943;-34
2023/06/18 02:59:50;;;;;;;22.50;17.30;;;13.10;99.90;;;;;;4998783;28;89477;-34
2023/06/18 03:02:16;;;;;;;26.83;21.17;;;13.10;99.90;;;;;;4997727;28;89874;-32
2023/06/18 03:04:42;;;;;;;27.80;22.73;;;13.00;99.90;;;;;;4998240;28;89665;-35
2023/06/18 03:07:07;;;;;;;24.15;20.67;;;13.10;99.90;;;;;;4997301;28;89490;-36
2023/06/18 03:09:33;;;;;;;30.73;21.63;;;13.20;99.90;;;;;;4997642;28;90645;-34
2023/06/18 03:11:59;;;;;;;24.15;18.80;;;13.20;99.90;;;;;;4998253;28;90366;-35
2023/06/18 03:14:25;;;;;;;37.90;24.75;;;13.00;99.90;;;;;;4997665;28;90035;-34
2023/06/18 03:16:50;;;;;;;32.97;26.58;;;13.00;99.90;;;;;;4998107;28;89000;-34
2023/06/18 03:19:16;;;;;;;32.80;26.92;;;13.00;99.90;;;;;;5001911;28;88454;-33
2023/06/18 03:21:42;;;;;;;33.40;24.52;;;13.00;99.90;;;;;;5018199;28;90867;-35
2023/06/18 03:24:08;;;;;;;34.25;24.73;;;13.00;99.90;;;;;;5017276;27;88485;-34
2023/06/18 03:26:36;;;;;;;65.00;36.88;;;13.00;99.90;;;;;;5017297;28;89514;-37
2023/06/18 03:29:05;;;;;;;61.45;37.13;;;13.10;99.90;;;;;;5012929;28;88238;-37
2023/06/18 03:31:31;;;;;;;53.03;34.85;;;13.20;99.90;;;;;;4996740;28;89357;-36
2023/06/18 03:34:01;;;;;;;46.85;34.47;;;13.30;99.90;;;;;;4997441;28;90612;-32
2023/06/18 03:36:39;;;;;;;60.70;40.45;;;13.30;99.90;;;;;;4998391;28;92747;-32
2023/06/18 03:39:06;;;;;;;44.13;31.85;;;13.30;99.90;;;;;;4985627;28;89332;-32
2023/06/18 03:41:31;;;;;;;50.47;35.05;;;13.30;99.90;;;;;;5012393;28;90346;-33
2023/06/18 03:43:57;;;;;;;86.63;40.15;;;13.40;99.90;;;;;;5020783;28;90553;-37
2023/06/18 03:46:23;;;;;;;123.28;45.75;;;13.40;99.90;;;;;;5019144;28;89656;-36
2023/06/18 03:48:48;;;;;;;95.00;41.67;;;13.40;99.90;;;;;;5020926;28;88050;-34
2023/06/18 03:51:14;;;;;;;84.88;39.05;;;13.40;99.90;;;;;;5019645;28;90670;-35
2023/06/18 03:53:40;;;;;;;84.95;35.08;;;13.50;99.90;;;;;;5020310;28;89125;-36
2023/06/18 03:56:08;;;;;;;216.52;48.90;;;13.60;99.90;;;;;;5019715;28;89701;-37
2023/06/18 03:58:33;;;;;;;88.82;37.10;;;13.50;99.90;;;;;;5019524;27;88699;-32
2023/06/18 04:00:59;;;;;;;68.18;32.70;;;13.50;99.90;;;;;;5019647;27;89739;-33
2023/06/18 04:03:25;;;;;;;126.15;34.33;;;13.50;99.90;;;;;;5020039;28;89736;-33
2023/06/18 04:05:50;;;;;;;142.93;38.75;;;13.40;99.90;;;;;;5016547;28;89467;-33
2023/06/18 04:08:16;;;;;;;75.45;33.55;;;13.40;99.90;;;;;;5019555;27;88976;-33
2023/06/18 04:10:43;;;;;;;111.07;31.27;;;13.50;99.90;;;;;;5018559;28;90331;-32
2023/06/18 04:13:16;;;;;;;47.80;31.75;;;13.40;99.90;;;;;;5018938;27;89565;-36
2023/06/18 04:15:43;;;;;;;73.85;32.53;;;13.40;99.90;;;;;;5018964;28;90132;-34
2023/06/18 04:18:08;;;;;;;65.43;31.63;;;13.50;99.90;;;;;;5018970;28;88985;-36
2023/06/18 04:20:34;;;;;;;79.75;35.25;;;13.50;99.90;;;;;;5018549;28;90344;-32
2023/06/18 04:23:00;;;;;;;96.70;31.98;;;13.40;99.90;;;;;;5018831;27;89426;-35
2023/06/18 04:25:26;;;;;;;70.68;31.02;;;13.40;99.90;;;;;;5019207;28;90288;-34
2023/06/18 04:27:52;;;;;;;60.92;31.25;;;13.60;99.90;;;;;;5019747;28;89120;-35
2023/06/18 04:30:28;;;;;;;49.92;30.00;;;13.70;99.90;;;;;;5019225;28;91365;-33
2023/06/18 04:32:54;;;;;;;56.13;30.38;;;13.70;99.90;;;;;;4958237;28;89651;-31
2023/06/18 04:35:19;;;;;;;56.78;33.45;;;13.70;99.90;;;;;;4959318;28;89858;-32
2023/06/18 04:37:45;;;;;;;85.47;33.17;;;13.70;99.90;;;;;;4960186;28;90428;-37
2023/06/18 04:40:12;;;;;;;57.78;32.05;;;13.80;99.90;;;;;;4959725;28;91617;-32
2023/06/18 04:42:38;;;;;;;74.95;35.78;;;13.80;99.90;;;;;;4959155;28;90110;-32
2023/06/18 04:45:04;;;;;;;83.07;36.55;;;13.70;99.90;;;;;;4959735;28;90522;-35
2023/06/18 04:47:30;;;;;;;65.10;33.30;;;13.70;99.90;;;;;;4959365;28;90045;-32
2023/06/18 04:49:56;;;;;;;49.95;33.17;;;13.70;99.90;;;;;;4959980;28;89947;-36
2023/06/18 04:52:22;;;;;;;51.28;32.92;;;13.70;99.90;;;;;;4959422;28;90017;-39
2023/06/18 04:54:47;;;;;;;61.22;35.45;;;13.70;99.90;;;;;;4958842;28;89804;-36
2023/06/18 04:57:13;;;;;;;62.88;34.78;;;13.70;99.90;;;;;;4959396;28;88283;-34
2023/06/18 04:59:40;;;;;;;54.38;37.28;;;13.80;99.90;;;;;;4959080;28;89947;-34
2023/06/18 05:02:06;;;;;;;61.97;38.78;;;13.80;99.90;;;;;;4959431;28;90139;-36
2023/06/18 05:04:32;;;;;;;58.75;39.25;;;13.80;99.90;;;;;;4960217;28;89669;-34
2023/06/18 05:06:58;;;;;;;62.25;41.47;;;13.90;99.90;;;;;;4959599;28;89406;-34
2023/06/18 05:09:23;;;;;;;63.45;42.25;;;13.90;99.90;;;;;;4959228;28;90565;-37
2023/06/18 05:11:49;;;;;;;57.67;39.53;;;14.00;99.90;;;;;;4956103;28;89358;-33
2023/06/18 05:14:15;;;;;;;65.63;40.70;;;14.00;99.90;;;;;;4958402;28;89735;-37
2023/06/18 05:16:40;;;;;;;55.63;39.67;;;14.10;99.90;;;;;;4960163;28;89127;-32
2023/06/18 05:19:06;;;;;;;55.97;39.78;;;14.20;99.90;;;;;;4956615;28;90082;-37
2023/06/18 05:21:32;;;;;;;54.38;38.17;;;14.30;99.90;;;;;;4959689;28;89450;-34
2023/06/18 05:23:57;;;;;;;51.53;38.35;;;14.50;99.90;;;;;;4958908;28;89575;-34
2023/06/18 05:26:23;;;;;;;58.17;39.95;;;14.70;99.90;;;;;;4959325;28;88889;-36
2023/06/18 05:28:49;;;;;;;52.45;38.28;;;14.80;99.90;;;;;;4959167;28;89387;-33
2023/06/18 05:31:15;;;;;;;54.28;37.22;;;14.90;99.90;;;;;;4957910;28;88610;-33
2023/06/18 05:33:41;;;;;;;55.63;38.95;;;14.90;99.90;;;;;;4959070;28;89917;-35
2023/06/18 05:36:07;;;;;;;54.08;39.00;;;15.10;99.90;;;;;;4958014;28;90236;-38
2023/06/18 05:38:32;;;;;;;55.60;39.00;;;15.10;99.90;;;;;;4959495;28;90231;-36
2023/06/18 05:40:58;;;;;;;51.40;39.90;;;15.40;99.90;;;;;;4959076;28;89519;-33
2023/06/18 05:43:24;;;;;;;55.22;40.08;;;15.50;99.90;;;;;;4957966;28;89717;-34
2023/06/18 05:45:50;;;;;;;51.38;36.08;;;15.70;99.90;;;;;;4958999;28;88420;-35
2023/06/18 05:48:15;;;;;;;53.92;39.20;;;15.90;99.90;;;;;;4958973;28;89701;-34
2023/06/18 05:50:42;;;;;;;51.92;38.28;;;16.00;99.90;;;;;;4959312;28;88574;-33
2023/06/18 05:53:07;;;;;;;50.00;38.70;;;16.20;99.90;;;;;;4958747;28;90800;-32
2023/06/18 05:55:33;;;;;;;50.53;38.97;;;16.40;99.90;;;;;;4958298;28;88355;-33
2023/06/18 05:57:59;;;;;;;49.17;37.88;;;16.50;99.90;;;;;;4958701;28;90411;-36
2023/06/18 06:00:26;;;;;;;50.03;38.45;;;16.70;99.90;;;;;;4957092;28;91045;-36
2023/06/18 06:02:52;;;;;;;48.35;38.13;;;16.90;99.90;;;;;;4958452;28;90644;-33
2023/06/18 06:05:17;;;;;;;47.67;37.22;;;17.10;99.90;;;;;;4957652;28;88949;-34
2023/06/18 06:07:43;;;;;;;45.85;38.63;;;17.30;99.90;;;;;;4956424;28;89958;-34
2023/06/18 06:10:09;;;;;;;47.20;37.13;;;17.30;99.90;;;;;;4959002;28;90249;-37
2023/06/18 06:12:35;;;;;;;46.80;36.50;;;17.60;99.90;;;;;;4958082;28;90418;-35
2023/06/18 06:15:01;;;;;;;46.03;37.05;;;17.80;99.90;;;;;;4941573;28;89583;-36
2023/06/18 06:17:27;;;;;;;46.83;35.70;;;18.00;99.90;;;;;;4958441;28;90144;-36
2023/06/18 06:19:53;;;;;;;48.35;38.33;;;18.10;99.90;;;;;;4958299;28;89950;-33
2023/06/18 06:22:18;;;;;;;45.10;34.15;;;18.30;99.90;;;;;;4958198;28;89664;-38
2023/06/18 06:24:44;;;;;;;44.83;35.25;;;18.50;99.90;;;;;;4957763;28;90305;-35
2023/06/18 06:27:10;;;;;;;43.03;32.88;;;18.80;99.90;;;;;;4957699;28;90190;-36
2023/06/18 06:29:36;;;;;;;44.45;34.28;;;18.80;99.90;;;;;;4958809;28;89838;-35
2023/06/18 06:32:01;;;;;;;44.30;34.50;;;18.90;99.90;;;;;;4957556;28;90591;-33
2023/06/18 06:34:27;;;;;;;42.88;34.15;;;19.20;99.90;;;;;;4958613;28;88383;-34
2023/06/18 06:36:53;;;;;;;46.00;35.15;;;19.20;99.90;;;;;;4958109;28;90379;-33
2023/06/18 06:39:18;;;;;;;39.03;30.70;;;19.30;99.90;;;;;;4958796;28;89861;-37
2023/06/18 06:41:44;;;;;;;40.10;31.35;;;19.50;99.90;;;;;;4958075;28;90484;-35
2023/06/18 06:44:10;;;;;;;36.67;29.30;;;19.60;99.90;;;;;;4958195;28;89158;-36
2023/06/18 06:46:36;;;;;;;38.38;31.00;;;19.70;99.90;;;;;;4957837;28;89917;-37
2023/06/18 06:49:03;;;;;;;37.13;30.55;;;19.80;99.90;;;;;;4957828;28;90412;-36
2023/06/18 06:51:29;;;;;;;41.78;31.70;;;19.90;99.90;;;;;;4957860;28;89317;-34
2023/06/18 06:53:54;;;;;;;38.10;30.30;;;20.20;99.90;;;;;;4958126;28;89858;-36
2023/06/18 06:56:20;;;;;;;37.95;27.38;;;20.10;99.90;;;;;;4957139;28;91014;-33
2023/06/18 06:58:45;;;;;;;41.60;29.83;;;20.20;99.90;;;;;;4958300;28;89680;-33
2023/06/18 07:01:11;;;;;;;34.53;28.33;;;20.30;99.90;;;;;;4939829;28;92194;-36
2023/06/18 07:03:36;;;;;;;33.30;26.67;;;20.50;99.90;;;;;;4958795;28;88327;-34
2023/06/18 07:06:06;;;;;;;34.58;26.33;;;20.70;99.90;;;;;;4958199;28;90921;-36
2023/06/18 07:08:31;;;;;;;32.05;25.83;;;20.80;99.90;;;;;;4957305;28;90154;-34
2023/06/18 07:10:57;;;;;;;36.13;27.63;;;21.10;99.90;;;;;;4958107;28;89517;-35
2023/06/18 07:13:23;;;;;;;28.83;24.48;;;21.50;99.90;;;;;;4957440;28;89557;-35
2023/06/18 07:15:48;;;;;;;32.67;24.88;;;21.70;99.90;;;;;;4959141;28;88307;-34
2023/06/18 07:18:14;;;;;;;32.33;28.20;;;22.10;99.90;;;;;;4961631;28;89470;-38
2023/06/18 07:20:40;;;;;;;35.72;27.98;;;22.30;99.90;;;;;;4955924;28;89298;-37
2023/06/18 07:23:05;;;;;;;31.23;24.75;;;22.70;99.90;;;;;;4958399;28;88666;-34
2023/06/18 07:25:31;;;;;;;27.60;22.98;;;22.80;99.90;;;;;;4958327;28;91854;-34
2023/06/18 07:27:56;;;;;;;34.00;23.58;;;23.00;99.90;;;;;;4958207;28;89683;-33
2023/06/18 07:30:22;;;;;;;31.55;22.45;;;22.90;99.90;;;;;;4958168;28;90941;-35
2023/06/18 07:32:47;;;;;;;30.00;25.00;;;23.10;99.90;;;;;;4957420;28;88312;-35
2023/06/18 07:35:13;;;;;;;28.35;23.48;;;22.70;99.90;;;;;;4958261;28;89809;-36
2023/06/18 07:37:39;;;;;;;25.30;22.58;;;23.00;99.90;;;;;;4957414;28;91027;-35
2023/06/18 07:40:05;;;;;;;27.98;22.80;;;23.20;99.90;;;;;;4958669;28;91534;-33
2023/06/18 07:42:31;;;;;;;26.88;21.25;;;23.20;99.90;;;;;;4957649;28;88527;-34
2023/06/18 07:44:57;;;;;;;24.20;21.55;;;23.50;99.90;;;;;;4957631;28;90707;-34
2023/06/18 07:47:22;;;;;;;26.30;21.77;;;23.50;99.90;;;;;;4957740;28;89088;-36
2023/06/18 07:49:48;;;;;;;26.13;21.80;;;23.50;99.90;;;;;;4958316;28;90726;-34
2023/06/18 07:52:14;;;;;;;25.27;22.38;;;23.80;99.90;;;;;;4958151;28;89424;-35
2023/06/18 07:54:39;;;;;;;25.27;20.85;;;24.00;99.90;;;;;;4958167;28;90394;-35
2023/06/18 07:57:05;;;;;;;22.27;19.63;;;24.20;99.90;;;;;;4958342;28;89725;-37
2023/06/18 07:59:31;;;;;;;25.80;20.05;;;24.60;99.90;;;;;;4958592;28;89645;-32
2023/06/18 08:01:56;;;;;;;25.80;19.75;;;24.60;99.90;;;;;;4957633;28;88574;-36
2023/06/18 08:04:22;;;;;;;22.55;19.30;;;24.50;99.90;;;;;;4957619;28;90218;-33
2023/06/18 08:06:50;;;;;;;23.15;19.55;;;24.60;99.90;;;;;;4957840;28;89903;-34
2023/06/18 08:09:16;;;;;;;21.45;19.05;;;24.80;99.90;;;;;;4956991;28;89747;-35
2023/06/18 08:11:42;;;;;;;26.88;20.98;;;25.10;99.90;;;;;;4958383;28;88697;-34
2023/06/18 08:14:07;;;;;;;19.17;17.23;;;25.20;99.90;;;;;;4956500;28;90387;-36
2023/06/18 08:16:33;;;;;;;21.55;18.90;;;25.10;99.90;;;;;;4957724;28;89486;-38
2023/06/18 08:18:59;;;;;;;22.17;19.73;;;25.00;99.90;;;;;;4957769;28;89758;-35
2023/06/18 08:21:24;;;;;;;21.70;19.38;;;25.20;99.90;;;;;;4957367;28;89443;-36
2023/06/18 08:23:51;;;;;;;20.58;18.10;;;25.50;99.90;;;;;;4958152;28;90169;-33
2023/06/18 08:26:19;;;;;;;24.88;19.55;;;25.80;99.90;;;;;;4955789;28;90677;-36
2023/06/18 08:28:44;;;;;;;;;;;25.50;99.90;;;;;;4957082;28;90186;-37
2023/06/18 08:31:10;;;;;;;23.80;18.25;;;25.60;99.90;;;;;;4959118;28;88898;-35
2023/06/18 08:33:36;;;;;;;20.23;17.98;;;25.90;99.90;;;;;;4956945;28;91369;-37
2023/06/18 08:36:01;;;;;;;21.17;17.05;;;26.10;99.90;;;;;;4957656;28;89263;-34
2023/06/18 08:38:27;;;;;;;20.23;17.25;;;26.40;99.90;;;;;;4956717;28;89629;-37
2023/06/18 08:41:01;;;;;;;17.13;14.68;;;26.50;98.00;;;;;;4957769;28;89782;-36
2023/06/18 08:43:31;;;;;;;16.52;14.70;;;26.50;97.50;;;;;;4957088;28;89779;-36
2023/06/18 08:46:08;;;;;;;17.30;15.43;;;26.70;99.90;;;;;;4958075;28;90026;-34
2023/06/18 08:48:41;;;;;;;15.73;14.23;;;26.90;92.30;;;;;;4954467;28;90202;-37
2023/06/18 08:51:09;;;;;;;20.20;14.45;;;26.80;89.80;;;;;;4956363;28;90590;-36
2023/06/18 08:53:40;;;;;;;;;;;26.80;92.20;;;;;;4956534;28;90285;-34
2023/06/18 08:56:07;;;;;;;16.38;14.80;;;26.70;75.70;;;;;;4963062;28;90283;-37
2023/06/18 08:58:40;;;;;;;16.00;14.10;;;26.50;81.30;;;;;;4957326;28;90424;-35
2023/06/18 09:01:06;;;;;;;15.75;14.15;;;26.80;92.00;;;;;;4956055;28;88508;-37
2023/06/18 09:03:32;;;;;;;11.95;10.10;;;27.20;96.70;;;;;;4956876;28;92291;-38
2023/06/18 09:05:58;;;;;;;11.77;10.57;;;27.60;84.60;;;;;;4952035;28;90765;-36
2023/06/18 09:08:24;;;;;;;12.52;10.10;;;27.60;71.70;;;;;;4956966;28;90006;-35
2023/06/18 09:10:54;;;;;;;11.65;10.45;;;27.60;67.50;;;;;;4956267;28;89441;-35
2023/06/18 09:13:19;;;;;;;12.32;10.48;;;27.60;67.60;;;;;;4956199;28;91312;-35
2023/06/18 09:15:45;;;;;;;10.77;9.68;;;27.70;66.30;;;;;;4956789;28;89497;-36
2023/06/18 09:18:11;;;;;;;13.48;8.60;;;27.50;66.30;;;;;;4956527;28;90829;-37
2023/06/18 09:20:38;;;;;;;10.85;9.95;;;28.00;64.80;;;;;;4957587;28;89390;-38
2023/06/18 09:23:10;;;;;;;12.18;9.68;;;28.10;64.60;;;;;;4957272;28;90779;-38
2023/06/18 09:25:36;;;;;;;10.75;9.65;;;28.20;65.10;;;;;;4957292;28;89662;-35
2023/06/18 09:28:03;;;;;;;11.30;10.18;;;28.10;63.60;;;;;;4956992;28;89233;-36
2023/06/18 09:30:29;;;;;;;11.75;10.60;;;28.10;63.80;;;;;;4955614;28;88663;-37
2023/06/18 09:32:57;;;;;;;11.27;9.48;;;28.20;63.30;;;;;;4956522;28;90290;-35
2023/06/18 09:35:23;;;;;;;10.57;9.43;;;28.20;61.90;;;;;;4957022;28;89276;-36
2023/06/18 09:37:49;;;;;;;12.18;8.60;;;28.40;63.50;;;;;;4956646;28;89432;-37
2023/06/18 09:40:17;;;;;;;10.85;9.75;;;28.30;62.50;;;;;;4956045;28;89543;-36
2023/06/18 09:42:44;;;;;;;10.98;9.90;;;28.30;60.70;;;;;;4957124;28;90325;-35
2023/06/18 09:45:11;;;;;;;10.85;9.82;;;28.30;60.20;;;;;;4957064;28;89586;-36
2023/06/18 09:47:40;;;;;;;13.50;9.53;;;28.60;61.10;;;;;;4956540;28;90118;-34
2023/06/18 09:50:06;;;;;;;8.80;7.90;;;28.70;60.50;;;;;;4956318;28;89202;-35
2023/06/18 09:52:41;;;;;;;9.38;8.55;;;29.00;59.00;;;;;;4956055;28;90088;-34
2023/06/18 09:55:31;;;;;;;9.70;8.48;;;29.10;57.70;;;;;;4955068;28;89962;-37
2023/06/18 09:57:58;;;;;;;8.38;7.57;;;29.00;58.10;;;;;;4956936;28;91086;-33
2023/06/18 10:00:24;;;;;;;8.73;8.02;;;29.40;58.40;;;;;;4956275;28;89107;-33
2023/06/18 10:02:50;;;;;;;8.37;7.70;;;29.40;58.60;;;;;;4956475;28;89742;-38
2023/06/18 10:05:16;;;;;;;15.02;8.95;;;29.20;55.80;;;;;;4956465;28;91823;-37
2023/06/18 10:07:42;;;;;;;10.25;8.77;;;29.00;54.70;;;;;;4956687;28;90564;-40
2023/06/18 10:10:13;;;;;;;10.43;9.10;;;28.90;57.70;;;;;;4956743;28;90297;-34
2023/06/18 10:12:44;;;;;;;11.13;8.80;;;29.10;56.40;;;;;;4956471;28;91288;-38
2023/06/18 10:15:13;;;;;;;10.15;8.90;;;29.00;56.40;;;;;;4956955;28;90610;-36
2023/06/18 10:17:46;;;;;;;10.70;9.60;;;28.80;56.00;;;;;;4955884;28;88846;-37
2023/06/18 10:20:14;;;;;;;10.23;8.40;;;29.00;57.90;;;;;;4956121;28;89573;-35
2023/06/18 10:22:55;;;;;;;13.05;9.63;;;28.70;58.80;;;;;;4955324;28;89994;-35
2023/06/18 10:25:21;;;;;;;9.88;8.88;;;28.80;55.70;;;;;;4955904;28;89922;-34
2023/06/18 10:27:49;;;;;;;10.13;9.05;;;28.40;55.30;;;;;;4954847;28;89200;-36
2023/06/18 10:30:15;;;;;;;9.48;7.97;;;28.60;56.90;;;;;;4955721;28;90003;-36
2023/06/18 10:32:43;;;;;;;9.53;8.73;;;28.80;59.10;;;;;;4956251;28;90204;-34
2023/06/18 10:35:12;;;;;;;8.82;7.93;;;28.80;57.50;;;;;;4955457;28;89420;-34
2023/06/18 10:37:39;;;;;;;9.55;8.75;;;28.60;57.10;;;;;;4955408;28;88856;-36
2023/06/18 10:40:06;;;;;;;10.85;9.63;;;28.70;57.60;;;;;;4956568;28;89783;-38
2023/06/18 10:42:32;;;;;;;13.93;9.75;;;28.60;56.90;;;;;;4956461;28;91192;-35
2023/06/18 10:45:08;;;;;;;9.60;8.68;;;28.50;56.80;;;;;;4956759;28;89626;-36
2023/06/18 10:47:33;;;;;;;11.80;10.55;;;28.50;54.70;;;;;;4957206;28;89407;-33
2023/06/18 10:50:02;;;;;;;12.73;9.27;;;28.20;56.80;;;;;;4955958;28;89974;-35
2023/06/18 10:52:30;;;;;;;9.93;8.90;;;28.40;56.30;;;;;;4959029;28;88862;-34
2023/06/18 10:55:22;;;;;;;9.75;8.27;;;28.20;55.30;;;;;;4959418;28;91224;-35
2023/06/18 10:57:50;;;;;;;9.15;8.25;;;28.20;56.70;;;;;;4957178;28;91905;-35
2023/06/18 11:00:17;;;;;;;8.82;8.02;;;28.20;57.80;;;;;;4959544;28;89259;-36
2023/06/18 11:02:44;;;;;;;9.15;8.38;;;28.10;57.40;;;;;;4959092;28;90652;-36
2023/06/18 11:05:43;;;;;;;9.52;8.73;;;28.30;57.60;;;;;;4959705;28;89930;-36
2023/06/18 11:08:10;;;;;;;10.07;9.13;;;28.60;57.40;;;;;;4959683;28;89146;-37
2023/06/18 11:10:39;;;;;;;10.18;9.27;;;28.70;57.50;;;;;;4960415;28;88871;-36
2023/06/18 11:13:10;;;;;;;9.10;8.30;;;28.70;57.70;;;;;;4947678;28;90075;-35
2023/06/18 11:15:53;;;;;;;9.45;8.52;;;28.70;57.00;;;;;;4958950;28;88111;-36
2023/06/18 11:18:21;;;;;;;10.60;9.75;;;28.60;57.20;;;;;;4959044;28;89173;-36
2023/06/18 11:20:47;;;;;;;10.65;9.52;;;28.60;56.40;;;;;;4958490;28;89819;-36
2023/06/18 11:23:15;;;;;;;9.23;8.35;;;28.40;57.20;;;;;;4959632;28;90449;-34
2023/06/18 11:25:41;;;;;;;9.55;8.63;;;28.50;56.80;;;;;;4959640;28;90945;-36
2023/06/18 11:28:08;;;;;;;9.55;8.65;;;28.30;56.60;;;;;;4958704;28;89340;-38
2023/06/18 11:30:36;;;;;;;9.18;8.38;;;28.20;57.00;;;;;;4959032;28;89745;-37
2023/06/18 11:33:02;;;;;;;19.98;9.63;;;28.20;56.70;;;;;;4960124;28;90230;-34
2023/06/18 11:35:32;;;;;;;10.77;9.45;;;28.20;56.80;;;;;;4958777;28;90080;-34
2023/06/18 11:37:58;;;;;;;8.32;7.60;;;28.10;56.40;;;;;;4959642;28;89643;-34
2023/06/18 11:40:23;;;;;;;12.23;8.55;;;28.10;57.20;;;;;;4959255;28;89128;-34
2023/06/18 11:42:51;;;;;;;10.55;9.55;;;28.10;56.40;;;;;;4959493;28;90172;-33
2023/06/18 11:45:17;;;;;;;12.18;9.60;;;28.00;56.90;;;;;;4958554;28;90349;-34
2023/06/18 11:47:46;;;;;;;9.90;8.77;;;28.10;57.00;;;;;;4959609;28;90040;-37
2023/06/18 11:50:12;;;;;;;10.18;9.25;;;28.10;56.50;;;;;;4957553;28;89260;-35
2023/06/18 11:52:39;;;;;;;10.02;9.13;;;28.10;56.40;;;;;;4956703;28;89575;-35
2023/06/18 11:55:05;;;;;;;11.18;8.63;;;28.30;56.50;;;;;;4956311;28;89465;-34
2023/06/18 11:57:31;;;;;;;10.15;9.10;;;28.40;56.30;;;;;;4957522;28;89842;-34
2023/06/18 11:59:57;;;;;;;10.45;9.55;;;28.40;55.80;;;;;;4957375;28;88962;-33
2023/06/18 12:02:25;;;;;;;10.57;8.60;;;28.40;56.00;;;;;;4955264;28;90726;-38
2023/06/18 12:04:51;;;;;;;8.90;8.20;;;28.50;56.40;;;;;;4957039;28;89961;-34
2023/06/18 12:07:22;;;;;;;10.00;8.73;;;28.40;55.60;;;;;;4957253;28;88893;-35
2023/06/18 12:09:51;;;;;;;9.32;8.52;;;28.20;56.10;;;;;;4956807;28;88965;-34
2023/06/18 12:12:35;;;;;;;12.40;9.52;;;28.30;56.30;;;;;;4938913;28;92289;-35
2023/06/18 12:15:25;;;;;;;10.00;9.05;;;28.30;55.90;;;;;;4957988;28;90096;-36
2023/06/18 12:18:03;;;;;;;10.23;9.23;;;28.20;55.70;;;;;;4958411;28;89153;-36
2023/06/18 12:20:29;;;;;;;10.75;9.77;;;28.20;57.40;;;;;;4957956;28;89044;-32
2023/06/18 12:22:56;;;;;;;9.57;8.68;;;28.20;58.20;;;;;;4958731;28;90544;-36
2023/06/18 12:25:23;;;;;;;10.57;9.77;;;28.30;58.80;;;;;;4958550;28;89820;-34
2023/06/18 12:27:54;;;;;;;10.30;9.23;;;28.30;58.50;;;;;;4957852;28;89125;-33
2023/06/18 12:30:29;;;;;;;10.95;9.90;;;28.30;58.80;;;;;;4957758;28;88483;-33